Relevés horaires Titlis (Suisse)


Relevés horaires à Titlis - Mardi 13 Avr. 2021
Heure UTC1 Température [°C] Vent [km/h] Hum. [%] Pres.4 [hPa] Visi. [Km] Nébu. [octa] Préc.5 [mm] Cond.
2m. Res. Ros. Dir.2 Vit. Moy. Raf.3
23:00 -14.4 -25.5 -36.6 N 31.5 -- 42.6 13 700(-1.0/3h) -- -- -- --
22:00 -14.9 -26.1 -32.1 NNE 31.5 -- 37.0 21 700(-0.5/3h) -- -- -- --
21:00 -16.7 -24.4 -17.2 NNE 13.0 -- 33.3 96 700(0.2/3h) -- -- -- --
20:00 -16.9 -26.7 -17.1 N 20.4 -- 33.3 98 700(0.5/3h) -- -- -- --
19:00 -16.9 -26.2 -17.7 N 18.5 -- 31.5 93 700(0.3/3h) -- -- -- --
18:00 -16.3 -23.2 -16.3 N 11.1 -- 31.5 100 700(0.1/3h) -- -- -- --
17:00 -16.4 -26 -17.3 NNE 20.4 -- 31.5 93 700(-0.1/3h) -- -- -- --
16:00 -16.6 -25.8 -18.0 N 18.5 -- 29.6 89 700(-0.1/3h) -- -- -- --
15:00 -16.5 -25.7 -18.2 N 18.5 -- 29.6 87 700(0.1/3h) -- -- -- --
14:00 -16.8 -26.5 -18.4 N 20.4 -- 29.6 87 700(0.4/3h) -- -- -- --
13:00 -17.2 -27.4 -19.2 NNE 22.2 -- 27.8 84 700(0.6/3h) -- -- -- --
12:00 -16.8 -25.6 -17.8 NNE 16.7 -- 46.3 92 700(0.7/3h) -- -- -- --
11:00 -16.9 -25.7 -17.6 N 16.7 -- 37.0 94 700(0.7/3h) -- -- -- --
10:00 -18.1 -29.7 -19.2 NNE 27.8 -- 38.9 91 700(0.5/3h) -- -- -- --
09:00 -18.1 -29.7 -19.9 NNE 27.8 -- 46.3 86 700(0.4/3h) -- -- -- --
08:00 -18.2 -31 -21.2 NNE 35.2 -- 46.3 77 700(0.5/3h) -- -- -- --
07:00 -17.6 -29.4 -19.3 NNE 29.6 -- 42.6 86 700(0.4/3h) -- -- -- --
06:00 -18.1 -30.6 -20.2 NE 33.3 -- 42.6 83 700(0.1/3h) -- -- -- --
05:00 -18.1 -30 -20.9 NNE 29.6 -- 38.9 79 700(-0.4/3h) -- -- -- --
04:00 -18.1 -28.2 -19.4 N 20.4 -- 40.7 89 700(-0.3/3h) -- -- -- --
03:00 -17.4 -28.1 -18.6 N 24.1 -- 38.9 90 700(-0.4/3h) -- -- -- --
02:00 -17.7 -22.1 -17.7 NNO 5.6 -- 31.5 100 700(-0.3/3h) -- -- -- --
01:00 -17.4 -27.7 -17.4 N 22.2 -- 38.9 100 700(-0.5/3h) -- -- -- --
00:00 -18.2 -29.5 -18.8 N 25.9 -- 40.7 95 700(-0.5/3h) -- -- -- --

1 Coordinated Universal Time. Actuellement il est 05:00 locale et 03:00 UTC.

2 Le vent souffle depuis la direction indiquée vers la direction oposée.

3 Les rafales max. sont disponible 40 min après l'heure du relevé.

4 Pour les stations d'altitude (plus de 600m) le géopotentiel du niveau le plus proche de la pression obligatoire est indiqué.

5 Les stations disposant d'un diffuseur peuvent indiquer "trace". Cela signifie que des précipitations ont touchés le sol mais que la quantité est inférieure à 0.1 mm.

Copyright

Les données affichées sur cette page sont la propriété exclusive de Météo Suisse.

Récapitulatif de la journée
Température [°C] Vent [km/h] Ensoleillement4 [h] Precipitations totale5 [mm] Pression [Hpa]
Min1 Max.2 Moy.3 Max. Min Max.
-18.4 -16.0 0 46.3 8 h 12 min 0 700.0 700.0

1 Température minimale relevée entre 18:00 UTC la veille et 18:00 UTC le jour donné.

2 Température maximale relevée entre 06:00 UTC le jour donné et 06:00 UTC le lendemain.

3 Vent moyen de la journée basé sur les relevés horaires.

4 Ensoleillement en heures relevé entre 06:00 UTC la veille et 06:00 UTC le jour donné.

5 Précipitations totales tombées entre 06:00 UTC la jour donné et 06:00 UTC le lendemain.

Graphiques horaires